sensor_id;sensor_type;location;lat;lon;timestamp;pressure;altitude;pressure_sealevel;temperature;humidity
5296;BME280;2670;42.720;23.336;2023-06-01T00:00:15;-22719.66;;;9.54;100.00
5296;BME280;2670;42.720;23.336;2023-06-01T00:02:42;-22718.59;;;9.51;100.00
5296;BME280;2670;42.720;23.336;2023-06-01T00:05:10;-22719.94;;;9.55;100.00
5296;BME280;2670;42.720;23.336;2023-06-01T00:07:37;-22719.78;;;9.55;100.00
5296;BME280;2670;42.720;23.336;2023-06-01T00:10:04;-22720.09;;;9.56;100.00
5296;BME280;2670;42.720;23.336;2023-06-01T00:12:31;-22718.75;;;9.51;100.00
5296;BME280;2670;42.720;23.336;2023-06-01T00:14:57;-22724.53;;;9.71;100.00
5296;BME280;2670;42.720;23.336;2023-06-01T00:17:24;-22719.66;;;9.54;100.00
5296;BME280;2670;42.720;23.336;2023-06-01T00:19:51;-22716.53;;;9.43;100.00
5296;BME280;2670;42.720;23.336;2023-06-01T00:22:20;-22714.44;;;9.36;100.00
5296;BME280;2670;42.720;23.336;2023-06-01T00:24:49;-22713.84;;;9.34;100.00
5296;BME280;2670;42.720;23.336;2023-06-01T00:27:16;-22712.38;;;9.29;100.00
5296;BME280;2670;42.720;23.336;2023-06-01T00:29:42;-22714.00;;;9.35;100.00
5296;BME280;2670;42.720;23.336;2023-06-01T00:32:09;-22712.81;;;9.31;100.00
5296;BME280;2670;42.720;23.336;2023-06-01T00:34:36;-22709.56;;;9.19;100.00
5296;BME280;2670;42.720;23.336;2023-06-01T00:37:03;-22705.56;;;9.06;100.00
5296;BME280;2670;42.720;23.336;2023-06-01T00:39:31;-22706.44;;;9.09;100.00
5296;BME280;2670;42.720;23.336;2023-06-01T00:41:58;-22706.75;;;9.10;100.00
5296;BME280;2670;42.720;23.336;2023-06-01T00:44:24;-22707.03;;;9.11;100.00
5296;BME280;2670;42.720;23.336;2023-06-01T00:46:51;-22704.66;;;9.03;100.00
5296;BME280;2670;42.720;23.336;2023-06-01T00:49:19;-22704.97;;;9.04;100.00
5296;BME280;2670;42.720;23.336;2023-06-01T00:51:45;-22709.56;;;9.19;100.00
5296;BME280;2670;42.720;23.336;2023-06-01T00:54:13;-22705.09;;;9.04;100.00
5296;BME280;2670;42.720;23.336;2023-06-01T00:56:41;-22704.38;;;9.02;100.00
5296;BME280;2670;42.720;23.336;2023-06-01T00:59:08;-22706.16;;;9.08;100.00
5296;BME280;2670;42.720;23.336;2023-06-01T01:01:35;-22709.41;;;9.19;100.00
5296;BME280;2670;42.720;23.336;2023-06-01T01:04:02;-22704.50;;;9.02;100.00
5296;BME280;2670;42.720;23.336;2023-06-01T01:06:37;-22705.84;;;9.07;100.00
5296;BME280;2670;42.720;23.336;2023-06-01T01:09:17;-22704.38;;;9.02;100.00
5296;BME280;2670;42.720;23.336;2023-06-01T01:11:52;-22705.56;;;9.06;100.00
5296;BME280;2670;42.720;23.336;2023-06-01T01:14:24;-22703.47;;;8.98;100.00
5296;BME280;2670;42.720;23.336;2023-06-01T01:16:59;-22702.13;;;8.94;100.00
5296;BME280;2670;42.720;23.336;2023-06-01T01:19:58;-22703.31;;;8.98;100.00
5296;BME280;2670;42.720;23.336;2023-06-01T01:25:29;-22704.81;;;9.03;100.00
5296;BME280;2670;42.720;23.336;2023-06-01T01:28:25;-22705.84;;;9.07;100.00
5296;BME280;2670;42.720;23.336;2023-06-01T01:30:57;-22703.19;;;8.97;100.00
5296;BME280;2670;42.720;23.336;2023-06-01T01:33:26;-22704.81;;;9.03;100.00
5296;BME280;2670;42.720;23.336;2023-06-01T01:35:53;-22701.41;;;8.91;100.00
5296;BME280;2670;42.720;23.336;2023-06-01T01:38:20;-22702.88;;;8.96;100.00
5296;BME280;2670;42.720;23.336;2023-06-01T01:40:47;-22704.22;;;9.01;100.00
5296;BME280;2670;42.720;23.336;2023-06-01T01:43:15;-22706.00;;;9.07;100.00
5296;BME280;2670;42.720;23.336;2023-06-01T01:45:44;-22707.19;;;9.11;100.00
5296;BME280;2670;42.720;23.336;2023-06-01T01:48:20;-22709.72;;;9.20;100.00
5296;BME280;2670;42.720;23.336;2023-06-01T01:50:52;-22710.16;;;9.21;100.00
5296;BME280;2670;42.720;23.336;2023-06-01T01:53:22;-22709.72;;;9.20;100.00
5296;BME280;2670;42.720;23.336;2023-06-01T01:55:51;-22709.41;;;9.19;100.00
5296;BME280;2670;42.720;23.336;2023-06-01T01:58:18;-22711.94;;;9.28;100.00
5296;BME280;2670;42.720;23.336;2023-06-01T02:00:47;-22711.50;;;9.26;100.00
5296;BME280;2670;42.720;23.336;2023-06-01T02:03:15;-22710.91;;;9.24;100.00
5296;BME280;2670;42.720;23.336;2023-06-01T02:05:43;-22708.22;;;9.15;100.00
5296;BME280;2670;42.720;23.336;2023-06-01T02:08:10;-22708.53;;;9.16;100.00
5296;BME280;2670;42.720;23.336;2023-06-01T02:10:37;-22708.97;;;9.17;100.00
5296;BME280;2670;42.720;23.336;2023-06-01T02:13:06;-22707.63;;;9.13;100.00
5296;BME280;2670;42.720;23.336;2023-06-01T02:15:33;-22708.06;;;9.14;100.00
5296;BME280;2670;42.720;23.336;2023-06-01T02:18:01;-22707.47;;;9.12;100.00
5296;BME280;2670;42.720;23.336;2023-06-01T02:20:27;-22710.44;;;9.22;100.00
5296;BME280;2670;42.720;23.336;2023-06-01T02:22:54;-22710.16;;;9.21;100.00
5296;BME280;2670;42.720;23.336;2023-06-01T02:25:21;-22712.38;;;9.29;100.00
5296;BME280;2670;42.720;23.336;2023-06-01T02:27:48;-22709.84;;;9.20;100.00
5296;BME280;2670;42.720;23.336;2023-06-01T02:30:15;-22707.19;;;9.11;100.00
5296;BME280;2670;42.720;23.336;2023-06-01T02:32:42;-22708.53;;;9.16;100.00
5296;BME280;2670;42.720;23.336;2023-06-01T02:35:11;-22713.28;;;9.32;100.00
5296;BME280;2670;42.720;23.336;2023-06-01T02:37:38;-22707.94;;;9.14;100.00
5296;BME280;2670;42.720;23.336;2023-06-01T02:40:06;-22708.38;;;9.15;100.00
5296;BME280;2670;42.720;23.336;2023-06-01T02:42:36;-22706.75;;;9.10;100.00
5296;BME280;2670;42.720;23.336;2023-06-01T02:45:04;-22706.00;;;9.07;100.00
5296;BME280;2670;42.720;23.336;2023-06-01T02:47:31;-22709.41;;;9.19;100.00
5296;BME280;2670;42.720;23.336;2023-06-01T02:49:58;-22710.00;;;9.21;100.00
5296;BME280;2670;42.720;23.336;2023-06-01T02:52:26;-22706.75;;;9.10;100.00
5296;BME280;2670;42.720;23.336;2023-06-01T02:54:53;-22707.03;;;9.11;100.00
5296;BME280;2670;42.720;23.336;2023-06-01T02:57:20;-22707.03;;;9.11;100.00
5296;BME280;2670;42.720;23.336;2023-06-01T02:59:46;-22704.22;;;9.01;100.00
5296;BME280;2670;42.720;23.336;2023-06-01T03:02:13;-22702.59;;;8.95;100.00
5296;BME280;2670;42.720;23.336;2023-06-01T03:04:40;-22700.66;;;8.89;100.00
5296;BME280;2670;42.720;23.336;2023-06-01T03:07:08;-22700.34;;;8.88;100.00
5296;BME280;2670;42.720;23.336;2023-06-01T03:09:37;-22701.69;;;8.92;100.00
5296;BME280;2670;42.720;23.336;2023-06-01T03:12:04;-22702.88;;;8.96;100.00
5296;BME280;2670;42.720;23.336;2023-06-01T03:14:31;-22704.97;;;9.04;100.00
5296;BME280;2670;42.720;23.336;2023-06-01T03:16:58;-22707.63;;;9.13;100.00
5296;BME280;2670;42.720;23.336;2023-06-01T03:19:25;-22702.59;;;8.95;100.00
5296;BME280;2670;42.720;23.336;2023-06-01T03:21:52;-22699.91;;;8.86;100.00
5296;BME280;2670;42.720;23.336;2023-06-01T03:24:18;-22698.28;;;8.81;100.00
5296;BME280;2670;42.720;23.336;2023-06-01T03:26:47;-22696.78;;;8.76;100.00
5296;BME280;2670;42.720;23.336;2023-06-01T03:29:15;-22696.06;;;8.73;100.00
5296;BME280;2670;42.720;23.336;2023-06-01T03:31:41;-22694.72;;;8.68;100.00
5296;BME280;2670;42.720;23.336;2023-06-01T03:34:08;-22694.72;;;8.68;100.00
5296;BME280;2670;42.720;23.336;2023-06-01T03:36:35;-22694.13;;;8.66;100.00
5296;BME280;2670;42.720;23.336;2023-06-01T03:39:03;-22693.97;;;8.66;100.00
5296;BME280;2670;42.720;23.336;2023-06-01T03:41:33;-22694.41;;;8.67;100.00
5296;BME280;2670;42.720;23.336;2023-06-01T03:44:01;-22693.69;;;8.65;100.00
5296;BME280;2670;42.720;23.336;2023-06-01T03:46:28;-22691.91;;;8.59;100.00
5296;BME280;2670;42.720;23.336;2023-06-01T03:48:55;-22694.72;;;8.68;100.00
5296;BME280;2670;42.720;23.336;2023-06-01T03:51:22;-22697.38;;;8.78;100.00
5296;BME280;2670;42.720;23.336;2023-06-01T03:53:49;-22691.00;;;8.56;100.00
5296;BME280;2670;42.720;23.336;2023-06-01T03:56:15;-22689.38;;;8.50;100.00
5296;BME280;2670;42.720;23.336;2023-06-01T03:58:42;-22691.00;;;8.56;100.00
5296;BME280;2670;42.720;23.336;2023-06-01T04:01:11;-22691.00;;;8.56;100.00
5296;BME280;2670;42.720;23.336;2023-06-01T04:03:39;-22691.16;;;8.56;100.00
5296;BME280;2670;42.720;23.336;2023-06-01T04:06:08;-22688.94;;;8.48;100.00
5296;BME280;2670;42.720;23.336;2023-06-01T04:08:39;-22689.97;;;8.52;100.00
5296;BME280;2670;42.720;23.336;2023-06-01T04:11:13;-22691.31;;;8.57;100.00
5296;BME280;2670;42.720;23.336;2023-06-01T04:13:39;-22692.94;;;8.62;100.00
5296;BME280;2670;42.720;23.336;2023-06-01T04:16:06;-22695.47;;;8.71;100.00
5296;BME280;2670;42.720;23.336;2023-06-01T04:18:34;-22693.09;;;8.63;100.00
5296;BME280;2670;42.720;23.336;2023-06-01T04:21:01;-22691.16;;;8.56;100.00
5296;BME280;2670;42.720;23.336;2023-06-01T04:23:28;-22692.19;;;8.60;100.00
5296;BME280;2670;42.720;23.336;2023-06-01T04:25:55;-22692.94;;;8.62;100.00
5296;BME280;2670;42.720;23.336;2023-06-01T04:28:24;-22693.09;;;8.63;100.00
5296;BME280;2670;42.720;23.336;2023-06-01T04:30:51;-22692.94;;;8.62;100.00
5296;BME280;2670;42.720;23.336;2023-06-01T04:33:18;-22691.00;;;8.56;100.00
5296;BME280;2670;42.720;23.336;2023-06-01T04:35:46;-22693.53;;;8.64;100.00
5296;BME280;2670;42.720;23.336;2023-06-01T04:38:13;-22701.84;;;8.93;100.00
5296;BME280;2670;42.720;23.336;2023-06-01T04:40:42;-22700.94;;;8.90;100.00
5296;BME280;2670;42.720;23.336;2023-06-01T04:43:10;-22701.69;;;8.92;100.00
5296;BME280;2670;42.720;23.336;2023-06-01T04:45:37;-22699.47;;;8.85;100.00
5296;BME280;2670;42.720;23.336;2023-06-01T04:48:04;-22699.75;;;8.86;100.00
5296;BME280;2670;42.720;23.336;2023-06-01T04:50:34;-22703.63;;;8.99;100.00
5296;BME280;2670;42.720;23.336;2023-06-01T04:53:02;-22702.00;;;8.93;100.00
5296;BME280;2670;42.720;23.336;2023-06-01T04:55:29;-22700.94;;;8.90;100.00
5296;BME280;2670;42.720;23.336;2023-06-01T04:57:56;-22700.94;;;8.90;100.00
5296;BME280;2670;42.720;23.336;2023-06-01T05:00:23;-22697.53;;;8.78;100.00
5296;BME280;2670;42.720;23.336;2023-06-01T05:02:50;-22698.44;;;8.81;100.00
5296;BME280;2670;42.720;23.336;2023-06-01T05:05:17;-22697.38;;;8.78;100.00
5296;BME280;2670;42.720;23.336;2023-06-01T05:07:43;-22701.84;;;8.93;100.00
5296;BME280;2670;42.720;23.336;2023-06-01T05:10:13;-22703.19;;;8.97;100.00
5296;BME280;2670;42.720;23.336;2023-06-01T05:12:39;-22699.91;;;8.86;100.00
5296;BME280;2670;42.720;23.336;2023-06-01T05:15:08;-22702.13;;;8.94;100.00
5296;BME280;2670;42.720;23.336;2023-06-01T05:17:36;-22702.00;;;8.93;100.00
5296;BME280;2670;42.720;23.336;2023-06-01T05:20:04;-22701.09;;;8.90;100.00
5296;BME280;2670;42.720;23.336;2023-06-01T05:22:34;-22701.84;;;8.93;100.00
5296;BME280;2670;42.720;23.336;2023-06-01T05:25:01;-22704.66;;;9.03;100.00
5296;BME280;2670;42.720;23.336;2023-06-01T05:27:29;-22705.56;;;9.06;100.00
5296;BME280;2670;42.720;23.336;2023-06-01T05:29:56;-22702.13;;;8.94;100.00
5296;BME280;2670;42.720;23.336;2023-06-01T05:32:23;-22700.81;;;8.89;100.00
5296;BME280;2670;42.720;23.336;2023-06-01T05:34:49;-22702.72;;;8.96;100.00
5296;BME280;2670;42.720;23.336;2023-06-01T05:37:16;-22700.50;;;8.88;100.00
5296;BME280;2670;42.720;23.336;2023-06-01T05:39:43;-22704.38;;;9.02;100.00
5296;BME280;2670;42.720;23.336;2023-06-01T05:42:09;-22701.09;;;8.90;100.00
5296;BME280;2670;42.720;23.336;2023-06-01T05:44:37;-22700.34;;;8.88;100.00
5296;BME280;2670;42.720;23.336;2023-06-01T05:47:05;-22702.00;;;8.93;100.00
5296;BME280;2670;42.720;23.336;2023-06-01T05:49:35;-22703.47;;;8.98;100.00
5296;BME280;2670;42.720;23.336;2023-06-01T05:52:02;-22706.88;;;9.10;100.00
5296;BME280;2670;42.720;23.336;2023-06-01T05:54:28;-22705.41;;;9.05;100.00
5296;BME280;2670;42.720;23.336;2023-06-01T05:56:55;-22710.00;;;9.21;100.00
5296;BME280;2670;42.720;23.336;2023-06-01T05:59:22;-22713.72;;;9.34;100.00
5296;BME280;2670;42.720;23.336;2023-06-01T06:01:50;-22715.19;;;9.39;100.00
5296;BME280;2670;42.720;23.336;2023-06-01T06:04:17;-22710.91;;;9.24;100.00
5296;BME280;2670;42.720;23.336;2023-06-01T06:06:44;-22710.59;;;9.23;100.00
5296;BME280;2670;42.720;23.336;2023-06-01T06:09:11;-22715.94;;;9.41;100.00
5296;BME280;2670;42.720;23.336;2023-06-01T06:11:39;-22716.81;;;9.44;100.00
5296;BME280;2670;42.720;23.336;2023-06-01T06:14:05;-22714.44;;;9.36;100.00
5296;BME280;2670;42.720;23.336;2023-06-01T06:16:32;-22717.28;;;9.46;100.00
5296;BME280;2670;42.720;23.336;2023-06-01T06:19:00;-22714.44;;;9.36;100.00
5296;BME280;2670;42.720;23.336;2023-06-01T06:21:27;-22711.78;;;9.27;100.00
5296;BME280;2670;42.720;23.336;2023-06-01T06:23:54;-22716.22;;;9.42;100.00
5296;BME280;2670;42.720;23.336;2023-06-01T06:26:24;-22715.94;;;9.41;100.00
5296;BME280;2670;42.720;23.336;2023-06-01T06:28:52;-22717.28;;;9.46;100.00
5296;BME280;2670;42.720;23.336;2023-06-01T06:31:18;-22720.97;;;9.59;100.00
5296;BME280;2670;42.720;23.336;2023-06-01T06:33:45;-22722.03;;;9.62;100.00
5296;BME280;2670;42.720;23.336;2023-06-01T06:36:13;-22724.69;;;9.71;100.00
5296;BME280;2670;42.720;23.336;2023-06-01T06:38:40;-22729.56;;;9.88;100.00
5296;BME280;2670;42.720;23.336;2023-06-01T06:41:07;-22730.47;;;9.91;100.00
5296;BME280;2670;42.720;23.336;2023-06-01T06:43:33;-22732.25;;;9.97;100.00
5296;BME280;2670;42.720;23.336;2023-06-01T06:46:00;-22732.25;;;9.97;100.00
5296;BME280;2670;42.720;23.336;2023-06-01T06:48:27;-22735.94;;;10.10;100.00
5296;BME280;2670;42.720;23.336;2023-06-01T06:50:54;-22739.81;;;10.23;100.00
5296;BME280;2670;42.720;23.336;2023-06-01T06:53:22;-22738.91;;;10.20;100.00
5296;BME280;2670;42.720;23.336;2023-06-01T06:55:49;-22744.41;;;10.39;100.00
5296;BME280;2670;42.720;23.336;2023-06-01T06:58:16;-22747.38;;;10.50;100.00
5296;BME280;2670;42.720;23.336;2023-06-01T07:00:42;-22747.97;;;10.52;100.00
5296;BME280;2670;42.720;23.336;2023-06-01T07:03:09;-22752.84;;;10.68;100.00
5296;BME280;2670;42.720;23.336;2023-06-01T07:05:36;-22753.13;;;10.69;100.00
5296;BME280;2670;42.720;23.336;2023-06-01T07:08:03;-22754.31;;;10.73;100.00
5296;BME280;2670;42.720;23.336;2023-06-01T07:10:32;-22755.22;;;10.77;100.00
5296;BME280;2670;42.720;23.336;2023-06-01T07:12:58;-22757.72;;;10.85;100.00
5296;BME280;2670;42.720;23.336;2023-06-01T07:15:25;-22755.97;;;10.79;100.00
5296;BME280;2670;42.720;23.336;2023-06-01T07:17:52;-22759.06;;;10.90;100.00
5296;BME280;2670;42.720;23.336;2023-06-01T07:20:19;-22761.44;;;10.98;100.00
5296;BME280;2670;42.720;23.336;2023-06-01T07:22:45;-22763.66;;;11.06;100.00
5296;BME280;2670;42.720;23.336;2023-06-01T07:25:13;-22763.22;;;11.04;100.00
5296;BME280;2670;42.720;23.336;2023-06-01T07:27:41;-22767.66;;;11.19;100.00
5296;BME280;2670;42.720;23.336;2023-06-01T07:30:09;-22767.06;;;11.17;100.00
5296;BME280;2670;42.720;23.336;2023-06-01T07:32:37;-22766.47;;;11.15;100.00
5296;BME280;2670;42.720;23.336;2023-06-01T07:35:05;-22766.63;;;11.16;100.00
5296;BME280;2670;42.720;23.336;2023-06-01T07:37:33;-22773.44;;;11.39;100.00
5296;BME280;2670;42.720;23.336;2023-06-01T07:40:00;-22774.31;;;11.42;100.00
5296;BME280;2670;42.720;23.336;2023-06-01T07:42:26;-22774.75;;;11.44;100.00
5296;BME280;2670;42.720;23.336;2023-06-01T07:44:55;-22774.59;;;11.43;100.00
5296;BME280;2670;42.720;23.336;2023-06-01T07:47:22;-22778.31;;;11.56;100.00
5296;BME280;2670;42.720;23.336;2023-06-01T07:49:53;-22778.00;;;11.55;100.00
5296;BME280;2670;42.720;23.336;2023-06-01T07:52:19;-22782.00;;;11.69;100.00
5296;BME280;2670;42.720;23.336;2023-06-01T07:54:47;-22784.06;;;11.76;100.00
5296;BME280;2670;42.720;23.336;2023-06-01T07:57:15;-22784.06;;;11.76;100.00
5296;BME280;2670;42.720;23.336;2023-06-01T07:59:42;-22782.75;;;11.71;100.00
5296;BME280;2670;42.720;23.336;2023-06-01T08:02:10;-22787.03;;;11.86;100.00
5296;BME280;2670;42.720;23.336;2023-06-01T08:04:39;-22786.16;;;11.83;100.00
5296;BME280;2670;42.720;23.336;2023-06-01T08:07:06;-22786.00;;;11.83;100.00
5296;BME280;2670;42.720;23.336;2023-06-01T08:09:33;-22789.25;;;11.94;100.00
5296;BME280;2670;42.720;23.336;2023-06-01T08:12:02;-22791.03;;;12.00;100.00
5296;BME280;2670;42.720;23.336;2023-06-01T08:14:29;-22794.13;;;12.11;100.00
5296;BME280;2670;42.720;23.336;2023-06-01T08:16:59;-22796.66;;;12.19;100.00
5296;BME280;2670;42.720;23.336;2023-06-01T08:19:28;-22797.09;;;12.21;100.00
5296;BME280;2670;42.720;23.336;2023-06-01T08:21:54;-22797.97;;;12.24;100.00
5296;BME280;2670;42.720;23.336;2023-06-01T08:24:21;-22800.78;;;12.34;100.00
5296;BME280;2670;42.720;23.336;2023-06-01T08:26:48;-22802.72;;;12.40;100.00
5296;BME280;2670;42.720;23.336;2023-06-01T08:29:14;-22805.22;;;12.49;100.00
5296;BME280;2670;42.720;23.336;2023-06-01T08:31:41;-22808.78;;;12.61;100.00
5296;BME280;2670;42.720;23.336;2023-06-01T08:34:08;-22814.09;;;12.80;100.00
5296;BME280;2670;42.720;23.336;2023-06-01T08:36:36;-22817.34;;;12.91;100.00
5296;BME280;2670;42.720;23.336;2023-06-01T08:39:20;-22820.59;;;13.02;100.00
5296;BME280;2670;42.720;23.336;2023-06-01T08:41:57;-22821.78;;;13.06;100.00
5296;BME280;2670;42.720;23.336;2023-06-01T08:44:26;-22830.19;;;13.35;100.00
5296;BME280;2670;42.720;23.336;2023-06-01T08:46:54;-22831.09;;;13.38;100.00
5296;BME280;2670;42.720;23.336;2023-06-01T08:49:21;-22836.41;;;13.57;100.00
5296;BME280;2670;42.720;23.336;2023-06-01T08:51:55;-22836.41;;;13.57;100.00
5296;BME280;2670;42.720;23.336;2023-06-01T08:54:23;-22842.00;;;13.76;100.00
5296;BME280;2670;42.720;23.336;2023-06-01T08:56:50;-22842.59;;;13.78;100.00
5296;BME280;2670;42.720;23.336;2023-06-01T08:59:17;-22845.84;;;13.89;100.00
5296;BME280;2670;42.720;23.336;2023-06-01T09:01:45;-22849.97;;;14.04;100.00
5296;BME280;2670;42.720;23.336;2023-06-01T09:04:13;-22854.41;;;14.19;100.00
5296;BME280;2670;42.720;23.336;2023-06-01T09:06:41;-22853.38;;;14.15;100.00
5296;BME280;2670;42.720;23.336;2023-06-01T09:09:09;-22861.91;;;14.45;100.00
5296;BME280;2670;42.720;23.336;2023-06-01T09:11:38;-22862.66;;;14.48;100.00
5296;BME280;2670;42.720;23.336;2023-06-01T09:14:19;-22871.50;;;14.78;100.00
5296;BME280;2670;42.720;23.336;2023-06-01T09:16:47;-22870.03;;;14.73;100.00
5296;BME280;2670;42.720;23.336;2023-06-01T09:19:14;-22870.63;;;14.75;100.00
5296;BME280;2670;42.720;23.336;2023-06-01T09:21:55;-22873.56;;;14.85;100.00
5296;BME280;2670;42.720;23.336;2023-06-01T09:24:24;-22874.88;;;14.90;100.00
5296;BME280;2670;42.720;23.336;2023-06-01T09:26:53;-22876.81;;;14.97;100.00
5296;BME280;2670;42.720;23.336;2023-06-01T09:29:24;-22883.72;;;15.20;100.00
5296;BME280;2670;42.720;23.336;2023-06-01T09:31:50;-22889.91;;;15.42;100.00
5296;BME280;2670;42.720;23.336;2023-06-01T09:34:18;-22897.13;;;15.67;100.00
5296;BME280;2670;42.720;23.336;2023-06-01T09:36:46;-22904.34;;;15.92;100.00
5296;BME280;2670;42.720;23.336;2023-06-01T09:39:16;-22903.63;;;15.89;100.00
5296;BME280;2670;42.720;23.336;2023-06-01T09:41:49;-22903.16;;;15.88;100.00
5296;BME280;2670;42.720;23.336;2023-06-01T09:44:26;-22905.53;;;15.96;100.00
5296;BME280;2670;42.720;23.336;2023-06-01T09:46:54;-22905.66;;;15.97;100.00
5296;BME280;2670;42.720;23.336;2023-06-01T09:49:24;-22906.84;;;16.01;100.00
5296;BME280;2670;42.720;23.336;2023-06-01T09:51:52;-22911.69;;;16.17;97.83
5296;BME280;2670;42.720;23.336;2023-06-01T09:54:24;-22918.31;;;16.40;86.38
5296;BME280;2670;42.720;23.336;2023-06-01T09:56:53;-22919.50;;;16.44;86.45
5296;BME280;2670;42.720;23.336;2023-06-01T09:59:20;-22922.00;;;16.53;82.77
5296;BME280;2670;42.720;23.336;2023-06-01T10:01:50;-22925.38;;;16.65;75.72
5296;BME280;2670;42.720;23.336;2023-06-01T10:04:21;-22924.34;;;16.61;79.75
5296;BME280;2670;42.720;23.336;2023-06-01T10:06:49;-22929.06;;;16.78;78.18
5296;BME280;2670;42.720;23.336;2023-06-01T10:09:18;-22931.84;;;16.87;77.59
5296;BME280;2670;42.720;23.336;2023-06-01T10:11:47;-22935.25;;;16.99;78.38
5296;BME280;2670;42.720;23.336;2023-06-01T10:14:16;-22930.38;;;16.82;75.18
5296;BME280;2670;42.720;23.336;2023-06-01T10:16:43;-22929.66;;;16.80;74.88
5296;BME280;2670;42.720;23.336;2023-06-01T10:19:11;-22941.56;;;17.21;72.51
5296;BME280;2670;42.720;23.336;2023-06-01T10:21:38;-22940.09;;;17.16;72.18
5296;BME280;2670;42.720;23.336;2023-06-01T10:24:08;-22940.81;;;17.18;75.27
5296;BME280;2670;42.720;23.336;2023-06-01T10:26:43;-22939.06;;;17.12;73.60
5296;BME280;2670;42.720;23.336;2023-06-01T10:29:11;-22938.91;;;17.12;75.37
5296;BME280;2670;42.720;23.336;2023-06-01T10:31:40;-22941.25;;;17.20;72.62
5296;BME280;2670;42.720;23.336;2023-06-01T10:34:08;-22941.41;;;17.21;70.86
5296;BME280;2670;42.720;23.336;2023-06-01T10:37:12;-22937.44;;;17.07;75.36
5296;BME280;2670;42.720;23.336;2023-06-01T10:39:40;-22941.13;;;17.20;75.35
5296;BME280;2670;42.720;23.336;2023-06-01T10:42:37;-22938.03;;;17.09;76.32
5296;BME280;2670;42.720;23.336;2023-06-01T10:45:05;-22938.75;;;17.11;75.21
5296;BME280;2670;42.720;23.336;2023-06-01T10:47:47;-22940.38;;;17.17;76.20
5296;BME280;2670;42.720;23.336;2023-06-01T10:50:18;-22937.44;;;17.07;78.52
5296;BME280;2670;42.720;23.336;2023-06-01T10:52:45;-22937.75;;;17.08;76.64
5296;BME280;2670;42.720;23.336;2023-06-01T10:55:26;-22933.91;;;16.95;73.43
5296;BME280;2670;42.720;23.336;2023-06-01T10:58:19;-22936.28;;;17.03;69.47
5296;BME280;2670;42.720;23.336;2023-06-01T11:00:48;-22935.09;;;16.99;70.60
5296;BME280;2670;42.720;23.336;2023-06-01T11:03:43;-22932.75;;;16.90;70.92
5296;BME280;2670;42.720;23.336;2023-06-01T11:06:23;-22929.50;;;16.79;69.93
5296;BME280;2670;42.720;23.336;2023-06-01T11:08:57;-22928.91;;;16.77;70.63
5296;BME280;2670;42.720;23.336;2023-06-01T11:11:59;-22926.13;;;16.67;74.12
5296;BME280;2670;42.720;23.336;2023-06-01T11:14:28;-22924.66;;;16.62;75.49
5296;BME280;2670;42.720;23.336;2023-06-01T11:20:02;-22922.44;;;16.55;74.98
5296;BME280;2670;42.720;23.336;2023-06-01T11:22:36;-22925.69;;;16.66;74.09
5296;BME280;2670;42.720;23.336;2023-06-01T11:25:05;-22927.16;;;16.71;73.42
5296;BME280;2670;42.720;23.336;2023-06-01T11:27:33;-22926.41;;;16.68;73.34
5296;BME280;2670;42.720;23.336;2023-06-01T11:30:01;-22928.03;;;16.74;70.31
5296;BME280;2670;42.720;23.336;2023-06-01T11:32:29;-22928.31;;;16.75;70.32
5296;BME280;2670;42.720;23.336;2023-06-01T11:34:58;-22925.97;;;16.67;71.85
5296;BME280;2670;42.720;23.336;2023-06-01T11:37:26;-22929.50;;;16.79;69.65
5296;BME280;2670;42.720;23.336;2023-06-01T11:40:04;-22932.75;;;16.90;72.27
5296;BME280;2670;42.720;23.336;2023-06-01T11:42:34;-22934.94;;;16.98;70.98
5296;BME280;2670;42.720;23.336;2023-06-01T11:45:02;-22934.50;;;16.97;70.51
5296;BME280;2670;42.720;23.336;2023-06-01T11:47:30;-22932.88;;;16.91;71.57
5296;BME280;2670;42.720;23.336;2023-06-01T11:49:57;-22933.78;;;16.94;70.38
5296;BME280;2670;42.720;23.336;2023-06-01T11:52:25;-22935.81;;;17.01;67.82
5296;BME280;2670;42.720;23.336;2023-06-01T11:54:52;-22929.78;;;16.80;67.93
5296;BME280;2670;42.720;23.336;2023-06-01T11:57:19;-22920.69;;;16.49;69.52
5296;BME280;2670;42.720;23.336;2023-06-01T11:59:48;-22910.81;;;16.14;71.49
5296;BME280;2670;42.720;23.336;2023-06-01T12:02:17;-22906.13;;;15.98;73.43
5296;BME280;2670;42.720;23.336;2023-06-01T12:04:54;-22897.59;;;15.68;73.87
5296;BME280;2670;42.720;23.336;2023-06-01T12:07:23;-22896.25;;;15.64;75.73
5296;BME280;2670;42.720;23.336;2023-06-01T12:09:52;-22890.66;;;15.44;77.33
5296;BME280;2670;42.720;23.336;2023-06-01T12:12:21;-22888.75;;;15.38;79.25
5296;BME280;2670;42.720;23.336;2023-06-01T12:14:49;-22885.50;;;15.27;79.28
5296;BME280;2670;42.720;23.336;2023-06-01T12:17:16;-22883.00;;;15.18;79.15
5296;BME280;2670;42.720;23.336;2023-06-01T12:19:46;-22880.94;;;15.11;81.64
5296;BME280;2670;42.720;23.336;2023-06-01T12:22:13;-22880.03;;;15.08;84.76
5296;BME280;2670;42.720;23.336;2023-06-01T12:24:40;-22877.69;;;15.00;88.57
5296;BME280;2670;42.720;23.336;2023-06-01T12:27:15;-22876.38;;;14.95;87.28
5296;BME280;2670;42.720;23.336;2023-06-01T12:29:43;-22874.44;;;14.88;86.51
5296;BME280;2670;42.720;23.336;2023-06-01T12:32:11;-22871.66;;;14.79;85.93
5296;BME280;2670;42.720;23.336;2023-06-01T12:34:39;-22869.00;;;14.69;84.25
5296;BME280;2670;42.720;23.336;2023-06-01T12:37:16;-22870.78;;;14.76;82.64
5296;BME280;2670;42.720;23.336;2023-06-01T12:39:50;-22866.78;;;14.62;86.33
5296;BME280;2670;42.720;23.336;2023-06-01T12:42:19;-22869.28;;;14.70;88.35
5296;BME280;2670;42.720;23.336;2023-06-01T12:44:52;-22867.81;;;14.65;92.17
5296;BME280;2670;42.720;23.336;2023-06-01T12:47:19;-22865.31;;;14.57;91.90
5296;BME280;2670;42.720;23.336;2023-06-01T12:50:04;-22863.53;;;14.51;95.21
5296;BME280;2670;42.720;23.336;2023-06-01T12:52:31;-22860.44;;;14.40;97.06
5296;BME280;2670;42.720;23.336;2023-06-01T12:54:57;-22858.38;;;14.33;98.76
5296;BME280;2670;42.720;23.336;2023-06-01T12:57:26;-22856.31;;;14.26;100.00
5296;BME280;2670;42.720;23.336;2023-06-01T12:59:52;-22856.91;;;14.28;100.00
5296;BME280;2670;42.720;23.336;2023-06-01T13:02:19;-22856.47;;;14.26;100.00
5296;BME280;2670;42.720;23.336;2023-06-01T13:04:46;-22857.94;;;14.31;100.00
5296;BME280;2670;42.720;23.336;2023-06-01T13:07:13;-22855.56;;;14.23;100.00
5296;BME280;2670;42.720;23.336;2023-06-01T13:09:40;-22859.25;;;14.36;100.00
5296;BME280;2670;42.720;23.336;2023-06-01T13:12:07;-22859.56;;;14.37;100.00